Time;durP1;ratioP1;P1;durP2;ratioP2;P2;SDS_P1;SDS_P2;PMS_P1;PMS_P2;Temp;Humidity;BMP_temperature;BMP_pressure;BME280_temperature;BME280_humidity;BME280_pressure;Samples;Min_cycle;Max_cycle;Signal;HPM_P1;HPM_P2
2021/06/13 00:00:38;;;;;;;1.38;0.77;;;23.50;54.00;;;;;;6262870;28;20490;-69
2021/06/13 00:03:39;;;;;;;0.63;0.60;;;23.50;53.90;;;;;;6263727;28;20033;-69
2021/06/13 00:06:40;;;;;;;0.82;0.60;;;23.50;54.00;;;;;;6266365;28;20483;-70
2021/06/13 00:09:41;;;;;;;0.85;0.60;;;23.50;54.00;;;;;;6268455;28;20061;-69
2021/06/13 00:12:42;;;;;;;0.43;0.40;;;23.50;54.00;;;;;;6268020;28;20091;-70
2021/06/13 00:15:43;;;;;;;1.13;0.88;;;23.50;54.00;;;;;;6267710;28;20059;-70
2021/06/13 00:18:44;;;;;;;0.98;0.65;;;23.50;53.90;;;;;;6253739;28;20017;-69
2021/06/13 00:21:44;;;;;;;0.70;0.70;;;23.50;54.00;;;;;;6260758;28;20037;-69
2021/06/13 00:24:45;;;;;;;0.88;0.70;;;23.40;53.90;;;;;;6265103;28;20083;-69
2021/06/13 00:27:45;;;;;;;1.00;0.70;;;23.50;54.00;;;;;;6267150;28;20036;-70
2021/06/13 00:30:46;;;;;;;0.70;0.65;;;23.50;54.00;;;;;;6267920;28;20495;-70
2021/06/13 00:33:47;;;;;;;0.77;0.63;;;23.50;54.00;;;;;;6267913;28;20104;-69
2021/06/13 00:36:47;;;;;;;0.52;0.52;;;23.50;54.00;;;;;;6267512;28;20028;-70
2021/06/13 00:39:48;;;;;;;0.85;0.70;;;23.40;53.90;;;;;;6248325;28;20029;-69
2021/06/13 00:42:49;;;;;;;0.90;0.73;;;23.50;54.00;;;;;;6267055;28;20128;-70
2021/06/13 00:45:50;;;;;;;0.63;0.60;;;23.50;54.00;;;;;;6267382;28;20119;-70
2021/06/13 00:48:50;;;;;;;0.50;0.50;;;23.50;54.00;;;;;;6267495;28;20387;-69
2021/06/13 00:51:52;;;;;;;1.27;0.60;;;23.50;54.70;;;;;;6259184;28;20029;-69
2021/06/13 00:54:52;;;;;;;1.90;0.88;;;23.50;54.00;;;;;;6228508;28;20061;-69
2021/06/13 00:57:53;;;;;;;0.70;0.60;;;23.50;53.90;;;;;;6260076;28;20025;-70
2021/06/13 01:00:53;;;;;;;0.82;0.60;;;23.50;54.00;;;;;;6267575;28;20039;-69
2021/06/13 01:03:54;;;;;;;0.85;0.50;;;23.50;54.00;;;;;;6266716;28;20025;-70
2021/06/13 01:07:15;;;;;;;1.10;0.60;;;23.50;54.00;;;;;;6267001;28;20087;-70
2021/06/13 01:10:24;;;;;;;1.05;0.63;;;23.50;54.00;;;;;;6266913;28;20241;-70
2021/06/13 01:13:52;;;;;;;0.88;0.63;;;23.50;54.00;;;;;;6250732;28;20085;-69
2021/06/13 01:17:15;;;;;;;0.80;0.60;;;23.50;54.00;;;;;;6263434;28;20471;-69
2021/06/13 01:20:27;;;;;;;0.73;0.63;;;23.50;54.00;;;;;;6266300;28;20475;-69
2021/06/13 01:23:50;;;;;;;1.33;0.82;;;23.50;54.00;;;;;;6266864;28;20043;-70
2021/06/13 01:27:25;;;;;;;1.17;0.65;;;23.50;54.00;;;;;;6266287;28;20039;-69
2021/06/13 01:30:28;;;;;;;0.50;0.50;;;23.50;54.00;;;;;;6256374;28;20025;-69
2021/06/13 01:33:31;;;;;;;0.80;0.80;;;23.50;54.00;;;;;;6265739;28;20103;-69
2021/06/13 01:36:34;;;;;;;0.70;0.60;;;23.50;54.00;;;;;;6266305;28;20440;-69
2021/06/13 01:39:38;;;;;;;0.73;0.50;;;23.50;54.00;;;;;;6248247;28;20584;-69
2021/06/13 01:42:44;;;;;;;1.00;0.80;;;23.50;54.00;;;;;;6265851;28;20036;-69
2021/06/13 01:45:45;;;;;;;0.52;0.50;;;23.50;54.00;;;;;;6233169;28;20033;-70
2021/06/13 01:48:47;;;;;;;0.70;0.60;;;23.50;54.00;;;;;;6263014;28;20322;-69
2021/06/13 01:51:48;;;;;;;1.35;0.70;;;23.50;54.00;;;;;;6263561;28;20437;-69
2021/06/13 01:54:50;;;;;;;1.10;0.70;;;23.50;54.00;;;;;;6235264;28;20082;-70
2021/06/13 01:57:52;;;;;;;0.43;0.43;;;23.50;54.00;;;;;;6265098;28;20449;-69
2021/06/13 02:00:53;;;;;;;0.63;0.50;;;23.50;54.00;;;;;;6265816;28;20033;-69
2021/06/13 02:03:56;;;;;;;0.85;0.60;;;23.50;54.00;;;;;;6254337;28;20029;-69
2021/06/13 02:06:58;;;;;;;0.80;0.52;;;23.50;54.00;;;;;;6256911;28;20231;-69
2021/06/13 02:10:01;;;;;;;0.60;0.50;;;23.50;54.00;;;;;;6262564;28;20099;-69
2021/06/13 02:13:03;;;;;;;1.48;0.88;;;23.50;54.00;;;;;;6264980;28;20045;-70
2021/06/13 02:16:07;;;;;;;0.45;0.45;;;23.50;54.00;;;;;;6265478;28;20480;-69
2021/06/13 02:19:09;;;;;;;0.50;0.50;;;23.50;54.00;;;;;;6265754;28;20033;-70
2021/06/13 02:22:14;;;;;;;0.73;0.65;;;23.50;54.00;;;;;;6264526;28;20278;-69
2021/06/13 02:25:17;;;;;;;0.68;0.57;;;23.50;54.00;;;;;;6256725;28;20107;-70
2021/06/13 02:28:18;;;;;;;0.75;0.73;;;23.50;54.00;;;;;;6264314;28;20504;-69
2021/06/13 02:31:23;;;;;;;1.05;0.60;;;23.50;54.00;;;;;;6264551;28;20028;-69
2021/06/13 02:34:26;;;;;;;0.68;0.60;;;23.50;54.70;;;;;;6264708;28;20214;-70
2021/06/13 02:37:29;;;;;;;0.50;0.50;;;23.50;54.00;;;;;;6265231;28;20119;-70
2021/06/13 02:40:30;;;;;;;0.55;0.50;;;23.50;54.00;;;;;;6260102;28;20098;-69
2021/06/13 02:43:31;;;;;;;0.52;0.45;;;23.50;54.00;;;;;;6259770;28;20032;-69
2021/06/13 02:46:31;;;;;;;2.00;0.60;;;23.50;54.00;;;;;;6258133;28;20034;-69
2021/06/13 02:49:32;;;;;;;0.63;0.60;;;23.50;54.00;;;;;;6259261;28;20735;-69
2021/06/13 02:52:44;;;;;;;1.33;0.73;;;23.50;54.00;;;;;;6242034;28;20132;-69
2021/06/13 02:55:52;;;;;;;0.93;0.70;;;23.50;54.00;;;;;;6264787;28;20098;-69
2021/06/13 02:59:01;;;;;;;0.60;0.60;;;23.50;54.00;;;;;;6250175;28;20086;-69
2021/06/13 03:02:06;;;;;;;0.50;0.50;;;23.50;54.00;;;;;;6261018;28;20036;-69
2021/06/13 03:05:07;;;;;;;1.13;0.80;;;23.50;54.00;;;;;;6251185;28;20025;-69
2021/06/13 03:08:09;;;;;;;0.93;0.75;;;23.50;54.00;;;;;;6251172;28;20025;-69
2021/06/13 03:11:11;;;;;;;0.65;0.60;;;23.50;54.00;;;;;;6264182;28;20025;-69
2021/06/13 03:14:14;;;;;;;0.77;0.70;;;23.50;54.00;;;;;;6263991;28;20051;-69
2021/06/13 03:17:16;;;;;;;0.80;0.75;;;23.50;54.00;;;;;;6253152;28;20076;-70
2021/06/13 03:20:16;;;;;;;1.00;0.60;;;23.50;54.00;;;;;;6263924;28;20052;-69
2021/06/13 03:23:18;;;;;;;0.50;0.50;;;23.50;54.00;;;;;;6258815;28;20036;-69
2021/06/13 03:26:19;;;;;;;0.88;0.70;;;23.50;54.00;;;;;;6263887;28;20017;-69
2021/06/13 03:29:21;;;;;;;1.02;0.68;;;23.50;54.00;;;;;;6263488;28;20102;-69
2021/06/13 03:32:24;;;;;;;0.75;0.50;;;23.50;54.00;;;;;;6257535;28;20060;-70
2021/06/13 03:35:25;;;;;;;0.80;0.60;;;23.50;54.00;;;;;;6248306;28;20543;-69
2021/06/13 03:38:27;;;;;;;1.27;0.75;;;23.50;54.00;;;;;;6264232;28;20079;-69
2021/06/13 03:41:27;;;;;;;0.82;0.65;;;23.50;54.00;;;;;;6263892;28;20062;-69
2021/06/13 03:44:28;;;;;;;0.52;0.52;;;23.50;54.00;;;;;;6263377;28;20108;-69
2021/06/13 03:47:31;;;;;;;0.57;0.57;;;23.50;54.00;;;;;;6263966;28;20159;-69
2021/06/13 03:50:33;;;;;;;0.60;0.60;;;23.50;54.00;;;;;;6248705;28;20430;-69
2021/06/13 03:53:33;;;;;;;0.60;0.52;;;23.50;54.00;;;;;;6249486;28;20626;-69
2021/06/13 03:56:40;;;;;;;0.60;0.60;;;23.50;54.00;;;;;;6255162;28;20025;-69
2021/06/13 04:00:37;;;;;;;0.82;0.60;;;23.50;54.00;;;;;;6263938;28;20112;-69
2021/06/13 04:03:40;;;;;;;0.85;0.57;;;23.50;54.00;;;;;;6263290;28;20515;-69
2021/06/13 04:06:44;;;;;;;1.15;0.77;;;23.50;54.00;;;;;;6247255;28;20420;-69
2021/06/13 04:09:45;;;;;;;0.50;0.43;;;23.50;54.10;;;;;;6254713;28;20108;-69
2021/06/13 04:12:48;;;;;;;0.88;0.52;;;23.50;54.00;;;;;;6262833;28;20040;-69
2021/06/13 04:15:49;;;;;;;1.17;0.70;;;23.50;54.00;;;;;;6263271;28;20064;-69
2021/06/13 04:18:51;;;;;;;0.70;0.57;;;23.50;54.00;;;;;;6263352;28;20139;-69
2021/06/13 04:21:52;;;;;;;0.70;0.50;;;23.50;54.00;;;;;;6263051;28;20147;-70
2021/06/13 04:24:54;;;;;;;0.50;0.50;;;23.50;54.00;;;;;;6259049;28;20303;-69
2021/06/13 04:27:56;;;;;;;1.05;0.70;;;23.50;54.00;;;;;;6263129;28;20117;-70
2021/06/13 04:31:02;;;;;;;0.80;0.60;;;23.50;54.00;;;;;;6263105;28;20029;-69
2021/06/13 04:34:02;;;;;;;0.82;0.60;;;23.50;54.00;;;;;;6263027;28;20044;-69
2021/06/13 04:37:04;;;;;;;0.90;0.60;;;23.40;53.90;;;;;;6263370;28;20052;-69
2021/06/13 04:40:05;;;;;;;0.63;0.60;;;23.50;54.00;;;;;;6258089;28;20032;-70
2021/06/13 04:43:06;;;;;;;0.73;0.40;;;23.50;54.10;;;;;;6260495;28;20060;-69
2021/06/13 04:46:10;;;;;;;0.55;0.50;;;23.50;54.00;;;;;;6262875;28;20074;-69
2021/06/13 04:49:10;;;;;;;0.70;0.70;;;23.40;53.90;;;;;;6263744;28;20442;-69
2021/06/13 04:52:15;;;;;;;0.60;0.50;;;23.50;54.10;;;;;;6253061;28;20025;-69
2021/06/13 04:55:22;;;;;;;0.95;0.65;;;23.50;54.10;;;;;;6245131;28;20044;-69
2021/06/13 04:58:24;;;;;;;1.95;0.77;;;23.50;54.10;;;;;;6243854;28;20021;-69
2021/06/13 05:01:25;;;;;;;0.50;0.50;;;23.50;54.00;;;;;;6260511;28;20040;-70
2021/06/13 05:04:26;;;;;;;0.52;0.50;;;23.50;54.10;;;;;;6251077;28;20029;-69
2021/06/13 05:07:27;;;;;;;1.15;0.52;;;23.50;54.10;;;;;;6256725;28;20040;-70
2021/06/13 05:10:27;;;;;;;0.60;0.50;;;23.50;54.10;;;;;;6267005;28;20100;-69
2021/06/13 05:13:28;;;;;;;0.60;0.50;;;23.40;54.00;;;;;;6221356;28;20399;-69
2021/06/13 05:16:28;;;;;;;1.27;0.52;;;23.40;54.00;;;;;;6242404;28;20107;-69
2021/06/13 05:19:29;;;;;;;0.88;0.50;;;23.40;54.00;;;;;;6258382;28;20099;-69
2021/06/13 05:22:29;;;;;;;0.88;0.70;;;23.50;54.10;;;;;;6241868;28;20542;-69
2021/06/13 05:25:33;;;;;;;0.50;0.50;;;23.40;54.00;;;;;;6238394;28;20036;-69
2021/06/13 05:28:34;;;;;;;0.90;0.60;;;23.50;54.10;;;;;;6241204;28;20033;-69
2021/06/13 05:31:34;;;;;;;0.43;0.43;;;23.40;54.00;;;;;;6240080;28;20025;-69
2021/06/13 05:34:35;;;;;;;0.85;0.70;;;23.50;54.00;;;;;;6262264;28;20575;-70
2021/06/13 05:37:35;;;;;;;1.02;0.70;;;23.40;53.90;;;;;;6262474;28;20399;-69
2021/06/13 05:40:37;;;;;;;1.00;0.70;;;23.50;54.10;;;;;;6252435;28;20095;-69
2021/06/13 05:43:39;;;;;;;1.00;0.60;;;23.40;54.00;;;;;;6260349;28;20040;-69
2021/06/13 05:46:40;;;;;;;0.80;0.50;;;23.40;54.00;;;;;;6226358;28;20602;-70
2021/06/13 05:49:40;;;;;;;0.60;0.60;;;23.40;54.00;;;;;;6254503;28;20035;-69
2021/06/13 05:52:41;;;;;;;1.20;0.70;;;23.50;54.10;;;;;;6255110;28;20247;-69
2021/06/13 05:55:42;;;;;;;0.73;0.60;;;23.50;54.10;;;;;;6251939;28;20033;-69
2021/06/13 05:58:42;;;;;;;0.65;0.50;;;23.50;54.10;;;;;;6263485;28;20064;-69
2021/06/13 06:01:43;;;;;;;0.60;0.60;;;23.40;54.00;;;;;;6253923;28;20064;-69
2021/06/13 06:04:43;;;;;;;0.80;0.50;;;23.40;53.90;;;;;;6249622;28;20029;-70
2021/06/13 06:07:44;;;;;;;0.70;0.63;;;23.50;54.10;;;;;;6242411;28;20044;-69
2021/06/13 06:10:45;;;;;;;0.50;0.50;;;23.50;54.10;;;;;;6238860;28;20022;-70
2021/06/13 06:13:52;;;;;;;0.70;0.60;;;23.40;53.90;;;;;;6244836;28;20061;-71
2021/06/13 06:16:53;;;;;;;0.40;0.40;;;23.40;54.00;;;;;;6252226;28;20392;-69
2021/06/13 06:19:53;;;;;;;0.85;0.55;;;23.40;54.00;;;;;;6238306;28;20071;-69
2021/06/13 06:22:54;;;;;;;0.63;0.63;;;23.40;54.00;;;;;;6262545;28;20099;-69
2021/06/13 06:25:55;;;;;;;1.65;0.50;;;23.50;54.00;;;;;;6245983;28;20086;-69
2021/06/13 06:28:55;;;;;;;0.50;0.50;;;23.40;54.00;;;;;;6255444;28;20042;-69
2021/06/13 06:31:56;;;;;;;1.80;0.70;;;23.40;54.00;;;;;;6255460;28;20024;-69
2021/06/13 06:34:56;;;;;;;0.90;0.68;;;23.50;54.10;;;;;;6247760;28;20120;-70
2021/06/13 06:37:57;;;;;;;0.57;0.50;;;23.40;54.00;;;;;;6262966;28;20029;-69
2021/06/13 06:40:58;;;;;;;0.90;0.60;;;23.40;54.00;;;;;;6255557;28;20428;-69
2021/06/13 06:43:58;;;;;;;1.02;0.50;;;23.40;54.00;;;;;;6247199;28;20472;-69
2021/06/13 06:47:02;;;;;;;0.80;0.50;;;23.50;54.10;;;;;;6254860;28;20032;-69
2021/06/13 06:50:04;;;;;;;2.83;0.60;;;23.40;53.90;;;;;;6248997;28;20021;-70
2021/06/13 06:53:04;;;;;;;1.10;0.80;;;23.40;54.00;;;;;;6258614;28;20024;-69
2021/06/13 06:56:05;;;;;;;0.80;0.63;;;23.40;54.00;;;;;;6230707;28;20032;-69
2021/06/13 06:59:06;;;;;;;0.40;0.40;;;23.40;54.00;;;;;;6258425;28;20048;-69
2021/06/13 07:02:06;;;;;;;0.93;0.60;;;23.40;54.00;;;;;;6260125;28;20044;-69
2021/06/13 07:05:07;;;;;;;0.90;0.60;;;23.40;54.00;;;;;;6251109;28;20100;-69
2021/06/13 07:08:08;;;;;;;1.55;0.70;;;23.50;54.10;;;;;;6247105;28;20044;-69
2021/06/13 07:11:08;;;;;;;0.80;0.55;;;23.40;54.00;;;;;;6252429;28;20032;-68
2021/06/13 07:14:09;;;;;;;0.55;0.50;;;23.40;54.00;;;;;;6259339;28;20102;-69
2021/06/13 07:17:09;;;;;;;1.58;0.77;;;23.50;54.00;;;;;;6259234;28;20060;-69
2021/06/13 07:20:11;;;;;;;1.30;0.63;;;23.40;54.00;;;;;;6244962;28;20033;-69
2021/06/13 07:23:12;;;;;;;0.95;0.43;;;23.40;53.90;;;;;;6249288;28;20021;-69
2021/06/13 07:26:12;;;;;;;0.55;0.47;;;23.40;53.90;;;;;;6239736;28;20037;-69
2021/06/13 07:29:13;;;;;;;1.25;0.65;;;23.40;53.90;;;;;;6252656;28;20038;-69
2021/06/13 07:32:15;;;;;;;0.98;0.50;;;23.40;54.00;;;;;;6236839;28;20108;-69
2021/06/13 07:35:18;;;;;;;0.63;0.50;;;23.40;54.00;;;;;;6255013;28;20424;-69
2021/06/13 07:38:19;;;;;;;1.27;0.65;;;23.40;54.00;;;;;;6260902;28;20100;-69
2021/06/13 07:41:20;;;;;;;0.65;0.57;;;23.40;54.00;;;;;;6259888;28;20418;-70
2021/06/13 07:44:20;;;;;;;1.85;0.73;;;23.40;54.00;;;;;;6249140;28;20485;-69
2021/06/13 07:47:21;;;;;;;1.25;0.80;;;23.40;54.00;;;;;;6241498;28;20392;-69
2021/06/13 07:50:22;;;;;;;4.47;0.68;;;23.40;54.00;;;;;;6253968;28;20025;-69
2021/06/13 07:53:22;;;;;;;4.32;0.50;;;23.50;54.20;;;;;;6232842;28;20026;-69
2021/06/13 07:56:23;;;;;;;4.30;0.80;;;23.50;54.30;;;;;;6246509;28;20025;-69
2021/06/13 07:59:23;;;;;;;1.95;0.60;;;23.50;54.10;;;;;;6237409;28;20034;-69
2021/06/13 08:02:24;;;;;;;2.03;0.93;;;23.50;54.10;;;;;;6239218;28;20041;-69
2021/06/13 08:05:25;;;;;;;2.42;0.82;;;23.50;54.10;;;;;;6246876;28;20029;-69
2021/06/13 08:08:26;;;;;;;0.80;0.65;;;23.50;54.10;;;;;;6263448;28;20170;-70
2021/06/13 08:11:29;;;;;;;2.88;0.70;;;23.50;54.20;;;;;;6262801;28;20637;-70
2021/06/13 08:14:29;;;;;;;1.17;0.68;;;23.50;54.10;;;;;;6262541;28;20106;-69
2021/06/13 08:17:30;;;;;;;2.78;0.93;;;23.50;54.10;;;;;;6262865;28;20053;-69
2021/06/13 08:20:30;;;;;;;2.05;0.60;;;23.50;54.10;;;;;;6263208;28;20029;-69
2021/06/13 08:23:31;;;;;;;1.17;0.70;;;23.40;54.00;;;;;;6263056;28;20025;-69
2021/06/13 08:26:33;;;;;;;3.17;0.93;;;23.40;54.10;;;;;;6258759;28;20036;-69
2021/06/13 08:29:34;;;;;;;1.02;0.50;;;23.50;54.10;;;;;;6267225;28;20029;-69
2021/06/13 08:32:35;;;;;;;1.38;0.82;;;23.50;54.10;;;;;;6267509;28;20033;-69
2021/06/13 08:35:36;;;;;;;1.60;0.85;;;23.50;54.10;;;;;;6267948;28;20541;-69
2021/06/13 08:38:36;;;;;;;0.65;0.47;;;23.50;54.10;;;;;;6267841;28;20033;-69
2021/06/13 08:41:37;;;;;;;1.17;0.50;;;23.50;54.10;;;;;;6260901;28;20415;-69
2021/06/13 08:44:39;;;;;;;1.48;0.65;;;23.50;54.10;;;;;;6262394;28;20522;-69
2021/06/13 08:47:41;;;;;;;1.67;0.70;;;23.50;54.10;;;;;;6267796;28;20116;-69
2021/06/13 08:50:41;;;;;;;0.65;0.52;;;23.50;54.10;;;;;;6242767;28;20033;-70
2021/06/13 08:53:45;;;;;;;2.47;0.93;;;23.50;54.10;;;;;;6240628;28;20068;-69
2021/06/13 08:56:45;;;;;;;1.25;0.70;;;23.50;54.10;;;;;;6255977;28;20432;-69
2021/06/13 08:59:47;;;;;;;1.40;0.77;;;23.50;54.10;;;;;;6267487;28;20037;-69
2021/06/13 09:02:47;;;;;;;0.63;0.40;;;23.50;54.00;;;;;;6267180;28;20314;-69
2021/06/13 09:05:48;;;;;;;1.88;0.70;;;23.50;54.10;;;;;;6267347;28;20279;-69
2021/06/13 09:08:48;;;;;;;0.90;0.55;;;23.50;54.10;;;;;;6266836;28;20048;-69
2021/06/13 09:12:01;;;;;;;0.88;0.70;;;23.50;54.10;;;;;;6266797;28;20025;-70
2021/06/13 09:15:02;;;;;;;0.52;0.50;;;23.50;54.10;;;;;;6266976;28;20431;-69
2021/06/13 09:18:03;;;;;;;1.50;0.70;;;23.50;54.10;;;;;;6267405;28;20036;-69
2021/06/13 09:21:12;;;;;;;1.77;0.70;;;23.50;54.10;;;;;;6245933;28;20500;-69
2021/06/13 09:24:27;;;;;;;1.35;0.80;;;23.50;54.10;;;;;;6251467;28;20024;-69
2021/06/13 09:27:27;;;;;;;0.93;0.70;;;23.50;54.10;;;;;;6266883;28;20037;-68
2021/06/13 09:30:32;;;;;;;2.03;0.80;;;23.50;54.10;;;;;;6266675;28;20163;-69
2021/06/13 09:33:35;;;;;;;1.33;0.82;;;23.50;54.10;;;;;;6266151;28;20557;-69
2021/06/13 09:36:35;;;;;;;2.03;0.88;;;23.50;54.10;;;;;;6263554;28;20357;-70
2021/06/13 09:39:37;;;;;;;1.33;0.70;;;23.50;54.10;;;;;;6266271;28;20083;-69
2021/06/13 09:42:37;;;;;;;1.33;0.60;;;23.40;54.10;;;;;;6261147;28;20079;-70
2021/06/13 09:45:39;;;;;;;1.10;0.60;;;23.50;54.10;;;;;;6266185;28;20025;-70
2021/06/13 09:48:42;;;;;;;0.90;0.60;;;23.50;54.10;;;;;;6247904;28;20059;-69
2021/06/13 09:51:47;;;;;;;1.10;0.60;;;23.50;54.10;;;;;;6257429;28;20110;-69
2021/06/13 09:55:12;;;;;;;1.15;0.65;;;23.50;54.10;;;;;;6231068;28;20450;-69
2021/06/13 09:58:14;;;;;;;2.55;0.60;;;23.40;54.00;;;;;;6248733;28;20027;-69
2021/06/13 10:01:15;;;;;;;0.98;0.57;;;23.40;54.00;;;;;;6252596;28;20445;-69
2021/06/13 10:04:18;;;;;;;2.63;0.88;;;23.50;54.10;;;;;;6222384;28;20033;-69
2021/06/13 10:07:20;;;;;;;4.28;1.00;;;23.40;53.10;;;;;;6246696;28;20242;-69
2021/06/13 10:10:41;;;;;;;5.13;1.77;;;23.40;52.10;;;;;;6262349;28;20094;-69
2021/06/13 10:13:43;;;;;;;3.30;1.33;;;23.50;51.90;;;;;;6250192;28;20478;-69
2021/06/13 10:16:50;;;;;;;10.00;2.42;;;23.40;52.30;;;;;;6251849;28;20322;-69
2021/06/13 10:19:50;;;;;;;11.02;2.90;;;23.50;49.80;;;;;;6263859;28;20033;-69
2021/06/13 10:22:51;;;;;;;13.27;3.05;;;23.40;50.10;;;;;;6261654;28;20107;-70
2021/06/13 10:25:51;;;;;;;8.20;2.83;;;23.40;49.50;;;;;;6261052;28;20033;-69
2021/06/13 10:28:53;;;;;;;6.63;2.63;;;23.40;48.60;;;;;;6246760;28;20479;-69
2021/06/13 10:31:56;;;;;;;9.60;2.70;;;23.50;47.30;;;;;;6262543;28;20056;-69
2021/06/13 10:34:58;;;;;;;7.57;2.40;;;23.50;48.00;;;;;;6239381;28;20327;-69
2021/06/13 10:37:59;;;;;;;7.07;2.38;;;23.50;46.80;;;;;;6243120;28;20055;-69
2021/06/13 10:41:00;;;;;;;6.20;2.10;;;23.50;48.70;;;;;;6255862;28;20045;-69
2021/06/13 10:44:22;;;;;;;4.60;1.92;;;23.50;50.20;;;;;;6259063;28;20052;-69
2021/06/13 10:47:23;;;;;;;2.60;1.38;;;23.50;50.70;;;;;;6262110;28;20045;-69
2021/06/13 10:50:33;;;;;;;3.63;1.40;;;23.50;51.10;;;;;;6258665;28;20222;-69
2021/06/13 10:53:34;;;;;;;6.03;1.65;;;23.50;51.40;;;;;;6243720;28;20029;-69
2021/06/13 10:56:34;;;;;;;2.67;1.40;;;23.40;51.40;;;;;;6261615;28;20056;-70
2021/06/13 10:59:38;;;;;;;3.83;1.60;;;23.40;51.60;;;;;;6261222;28;20047;-69
2021/06/13 11:02:38;;;;;;;4.70;1.50;;;23.40;51.80;;;;;;6256855;28;20029;-69
2021/06/13 11:05:44;;;;;;;1.90;0.95;;;23.40;51.90;;;;;;6250020;28;20108;-69
2021/06/13 11:09:15;;;;;;;4.80;1.60;;;23.40;52.10;;;;;;6244030;28;20195;-69
2021/06/13 11:12:40;;;;;;;2.50;1.38;;;23.40;52.30;;;;;;6245287;28;20064;-69
2021/06/13 11:15:46;;;;;;;3.28;1.30;;;23.40;52.40;;;;;;6254093;28;20591;-69
2021/06/13 11:18:47;;;;;;;1.55;1.05;;;23.40;52.40;;;;;;6235103;28;20094;-69
2021/06/13 11:21:47;;;;;;;2.30;1.10;;;23.40;52.50;;;;;;6243608;28;20033;-69
2021/06/13 11:24:50;;;;;;;3.08;1.30;;;23.40;52.70;;;;;;6254518;28;20025;-69
2021/06/13 11:28:11;;;;;;;2.58;1.20;;;23.40;52.60;;;;;;6263212;28;20037;-69
2021/06/13 11:31:13;;;;;;;2.78;1.20;;;23.40;52.80;;;;;;6252896;28;20086;-69
2021/06/13 11:34:13;;;;;;;1.67;1.15;;;23.50;53.00;;;;;;6248698;28;20037;-69
2021/06/13 11:37:23;;;;;;;1.38;0.93;;;23.50;53.00;;;;;;6252940;28;20041;-69
2021/06/13 11:40:31;;;;;;;2.50;1.10;;;23.50;53.10;;;;;;6262896;28;20556;-69
2021/06/13 11:43:45;;;;;;;1.45;1.00;;;23.50;53.00;;;;;;6232286;28;20516;-70
2021/06/13 11:46:48;;;;;;;3.38;1.27;;;23.50;53.10;;;;;;6255443;28;20436;-69
2021/06/13 11:49:48;;;;;;;1.40;0.95;;;23.50;53.10;;;;;;6229030;28;20176;-69
2021/06/13 11:52:55;;;;;;;1.70;0.90;;;23.50;53.20;;;;;;6237802;28;20018;-69
2021/06/13 11:56:00;;;;;;;1.67;0.93;;;23.50;53.20;;;;;;6255549;28;20453;-70
2021/06/13 11:59:09;;;;;;;2.25;1.17;;;23.50;53.20;;;;;;6252824;28;20696;-70
2021/06/13 12:02:14;;;;;;;1.80;1.00;;;23.50;53.20;;;;;;6265668;28;20029;-69
2021/06/13 12:05:14;;;;;;;1.63;0.80;;;23.50;53.20;;;;;;6257030;28;20035;-70
2021/06/13 12:08:15;;;;;;;2.17;0.80;;;23.50;53.20;;;;;;6252607;28;20682;-69
2021/06/13 12:11:37;;;;;;;2.15;0.98;;;23.60;53.30;;;;;;6269628;28;20495;-70
2021/06/13 12:14:43;;;;;;;1.25;0.80;;;23.60;53.30;;;;;;6265511;28;20128;-70
2021/06/13 12:17:43;;;;;;;1.35;0.85;;;23.60;53.30;;;;;;6265678;28;20033;-69
2021/06/13 12:20:55;;;;;;;2.10;1.10;;;23.60;53.30;;;;;;6265767;28;20105;-70
2021/06/13 12:24:09;;;;;;;4.25;1.20;;;23.60;53.30;;;;;;6255356;28;20048;-69
2021/06/13 12:27:23;;;;;;;5.18;1.05;;;23.60;53.40;;;;;;6268419;28;20503;-69
2021/06/13 12:30:27;;;;;;;0.90;0.70;;;23.60;53.30;;;;;;6254203;28;20043;-69
2021/06/13 12:33:37;;;;;;;1.47;1.00;;;23.60;53.30;;;;;;6268270;28;20021;-69
2021/06/13 12:36:47;;;;;;;2.65;0.88;;;23.60;53.30;;;;;;6269104;28;20996;-69
2021/06/13 12:39:59;;;;;;;4.47;0.88;;;23.60;53.40;;;;;;6256955;28;20029;-69
2021/06/13 12:43:00;;;;;;;4.45;0.95;;;23.60;53.40;;;;;;6263635;28;20017;-69
2021/06/13 12:46:01;;;;;;;1.25;0.70;;;23.60;53.40;;;;;;6249789;28;20245;-69
2021/06/13 12:49:01;;;;;;;1.70;0.80;;;23.60;53.40;;;;;;6244170;28;20060;-70
2021/06/13 12:52:14;;;;;;;4.22;1.10;;;23.60;53.50;;;;;;6267646;28;20032;-68
2021/06/13 12:55:14;;;;;;;2.85;1.15;;;23.60;53.40;;;;;;6258128;28;20563;-69
2021/06/13 12:58:17;;;;;;;4.13;1.20;;;23.60;53.50;;;;;;6263783;28;20064;-69
2021/06/13 13:01:18;;;;;;;1.63;0.70;;;23.60;53.40;;;;;;6258156;28;20523;-69
2021/06/13 13:04:41;;;;;;;3.55;0.90;;;23.60;53.50;;;;;;6260586;28;20029;-69
2021/06/13 13:07:42;;;;;;;1.63;0.90;;;23.60;53.40;;;;;;6260790;28;20074;-68
2021/06/13 13:11:03;;;;;;;0.85;0.70;;;23.60;53.40;;;;;;6265216;28;20507;-68
2021/06/13 13:14:04;;;;;;;3.53;0.70;;;23.60;53.50;;;;;;6235700;28;20199;-69
2021/06/13 13:17:05;;;;;;;1.73;0.90;;;23.60;53.50;;;;;;6262295;28;20017;-68
2021/06/13 13:20:18;;;;;;;2.63;0.95;;;23.60;53.50;;;;;;6263727;28;20511;-68
2021/06/13 13:23:19;;;;;;;3.28;1.00;;;23.60;53.50;;;;;;6259912;28;20310;-68
2021/06/13 13:26:21;;;;;;;2.03;1.05;;;23.60;53.50;;;;;;6264539;28;20064;-68
2021/06/13 13:29:37;;;;;;;2.08;0.80;;;23.60;53.40;;;;;;6266046;28;20037;-68
2021/06/13 13:32:54;;;;;;;2.17;1.05;;;23.70;53.40;;;;;;6258481;28;20448;-68
2021/06/13 13:35:55;;;;;;;3.08;1.50;;;23.70;53.40;;;;;;6255769;28;20021;-68
2021/06/13 13:38:56;;;;;;;2.10;0.93;;;23.80;53.50;;;;;;6257055;28;20032;-69
2021/06/13 13:42:01;;;;;;;2.15;1.08;;;23.70;53.40;;;;;;6263030;28;20048;-68
2021/06/13 13:45:01;;;;;;;3.67;1.25;;;23.80;53.60;;;;;;6249126;28;20242;-68
2021/06/13 13:48:20;;;;;;;2.50;1.23;;;23.70;53.60;;;;;;6266192;28;20116;-68
2021/06/13 13:51:21;;;;;;;1.20;0.80;;;23.70;53.60;;;;;;6253540;28;20476;-69
2021/06/13 13:54:33;;;;;;;2.78;1.08;;;23.70;53.60;;;;;;6255926;28;20302;-70
2021/06/13 13:57:45;;;;;;;2.25;1.00;;;23.70;53.70;;;;;;6256980;28;20028;-68
2021/06/13 14:00:46;;;;;;;2.47;1.00;;;23.70;53.70;;;;;;6263233;28;20433;-68
2021/06/13 14:03:47;;;;;;;2.85;0.82;;;23.70;53.70;;;;;;6265632;28;20021;-71
2021/06/13 14:06:47;;;;;;;1.75;0.90;;;23.70;53.70;;;;;;6258995;28;20443;-69
2021/06/13 14:09:48;;;;;;;2.75;0.90;;;23.70;53.70;;;;;;6260527;28;20581;-69
2021/06/13 14:12:48;;;;;;;2.10;1.00;;;23.70;53.70;;;;;;6258480;28;20074;-69
2021/06/13 14:15:49;;;;;;;2.67;1.20;;;23.70;53.70;;;;;;6251511;28;20025;-71
2021/06/13 14:18:50;;;;;;;2.67;1.15;;;23.70;53.70;;;;;;6251922;28;20030;-69
2021/06/13 14:21:53;;;;;;;2.35;1.00;;;23.70;53.70;;;;;;6248879;28;20025;-69
2021/06/13 14:24:53;;;;;;;2.45;1.08;;;23.70;53.70;;;;;;6254504;28;20405;-69
2021/06/13 14:27:54;;;;;;;2.00;1.00;;;23.70;53.70;;;;;;6251452;28;20082;-70
2021/06/13 14:30:55;;;;;;;2.78;1.20;;;23.70;53.70;;;;;;6245779;28;20098;-69
2021/06/13 14:33:56;;;;;;;3.10;1.40;;;23.70;53.80;;;;;;6260394;28;20030;-69
2021/06/13 14:36:57;;;;;;;2.33;1.05;;;23.70;53.80;;;;;;6255279;28;20098;-69
2021/06/13 14:39:57;;;;;;;3.28;1.10;;;23.70;53.80;;;;;;6265858;28;20104;-69
2021/06/13 14:42:58;;;;;;;1.85;1.20;;;23.60;53.70;;;;;;6253263;28;20036;-70
2021/06/13 14:45:59;;;;;;;3.20;1.20;;;23.60;53.70;;;;;;6240065;28;20697;-69
2021/06/13 14:49:00;;;;;;;1.67;1.15;;;23.60;53.60;;;;;;6263348;28;20128;-69
2021/06/13 14:52:02;;;;;;;3.53;1.27;;;23.60;53.70;;;;;;6255899;28;20036;-70
2021/06/13 14:55:03;;;;;;;3.15;1.10;;;23.60;53.70;;;;;;6255072;28;20064;-70
2021/06/13 14:58:05;;;;;;;3.67;1.20;;;23.60;53.70;;;;;;6255976;28;20074;-69
2021/06/13 15:01:06;;;;;;;2.83;1.25;;;23.60;53.70;;;;;;6254087;28;20045;-69
2021/06/13 15:04:06;;;;;;;2.58;1.35;;;23.60;53.70;;;;;;6233907;28;20108;-69
2021/06/13 15:07:07;;;;;;;4.85;1.90;;;23.60;53.70;;;;;;6248278;28;20025;-69
2021/06/13 15:10:08;;;;;;;3.35;1.65;;;23.60;53.70;;;;;;6263091;28;20357;-69
2021/06/13 15:13:09;;;;;;;3.65;1.58;;;23.60;53.70;;;;;;6249786;28;20037;-69
2021/06/13 15:16:09;;;;;;;4.43;1.42;;;23.60;53.70;;;;;;6259267;28;20032;-69
2021/06/13 15:19:10;;;;;;;5.13;1.40;;;23.70;53.80;;;;;;6262872;28;20074;-69
2021/06/13 15:22:10;;;;;;;2.42;1.38;;;23.70;53.80;;;;;;6264089;28;20129;-69
2021/06/13 15:25:13;;;;;;;3.13;1.45;;;23.70;53.80;;;;;;6250423;28;20030;-70
2021/06/13 15:28:14;;;;;;;4.72;1.60;;;23.70;53.70;;;;;;6264570;28;20471;-69
2021/06/13 15:31:15;;;;;;;3.53;1.67;;;23.70;53.60;;;;;;6263450;28;20032;-69
2021/06/13 15:34:20;;;;;;;3.63;1.55;;;23.70;53.60;;;;;;6261849;28;20044;-70
2021/06/13 15:37:20;;;;;;;4.63;1.98;;;23.70;53.60;;;;;;6260348;28;20063;-69
2021/06/13 15:40:21;;;;;;;5.22;1.50;;;23.70;53.60;;;;;;6260480;28;20086;-69
2021/06/13 15:43:24;;;;;;;3.08;1.73;;;23.70;53.60;;;;;;6257679;28;20184;-70
2021/06/13 15:46:24;;;;;;;2.53;1.33;;;23.70;53.70;;;;;;6262499;28;20029;-69
2021/06/13 15:49:26;;;;;;;3.47;1.80;;;23.70;53.70;;;;;;6251310;28;20116;-69
2021/06/13 15:52:28;;;;;;;3.95;1.77;;;23.70;53.70;;;;;;6252430;28;20614;-70